Atlanta, GA

12:04 PM EDT on March 27, 2015 (GMT -0400)
Buckhead Forest | | Change Station
CLOSE
Current Station
Personal Weather Station
Location: Atlanta, GA
Elevation: 1010 ft
Nearby Weather Stations
Active Advisory: Freeze Watch

Elev 1010 ft 33.84 °N, 84.38 °W | Updated 7 seconds ago

Overcast
Overcast
49.3 °F
Feels Like 49 °F
N
2.0
Wind Variable Wind from NW
Gusts 8.0 mph

Today
High -- | Low -- °F
--% Chance of Precip.
Yesterday
High -- | Low -- °F
Precip. -- in
7:32 AM 7:54 PM
First Quarter, 53% visible
Pressure 29.86 in
Visibility 10.0 miles
Clouds Overcast 2400 ft
Windchill 49 °F
Dew Point 41 °F
Humidity 72%
Rainfall 0.05 in
Snow Depth Not available.
UV 0.0 out of 12
Pollen 9.80 out of 12
Air Quality Not available.
Flu Activity Not available.
METAR KPDK 271553Z 32017G24KT 10SM OVC024 09/03 A2986 RMK AO2 SLP109 T00890028

More Conditions Fewer Conditions

Pressure 29.86 in
Visibility 10.0 miles
Clouds Overcast 2400 ft
Windchill 49 °F
Dew Point 41 °F
Humidity 72%
Rainfall 0.05 in
Snow Depth Not available.
UV 0.0 out of 12
Pollen 9.80 out of 12
Air Quality Not available.
Flu Activity Not available.
METAR KPDK 271553Z 32017G24KT 10SM OVC024 09/03 A2986 RMK AO2 SLP109 T00890028

More Conditions Fewer Conditions

10-Day Weather Forecast

Almanac

Astronomy

Mar. 27, 2015 Rise Set
Actual Time
Civil Twilight
Nautical Twilight
Astronomical Twilight
Moon
Length of Visible Light
Length of Day
Tomorrow will be .
, % of the Moon is Illuminated

Today's Extremes

State Highs State Lows

Community

WunderPhotos

Upload Photos

1,808,766 photos uploaded!

WunderBlogs® & News

Nearby

Air Quality

  Air Quality AQ Index Pollutant
Not available.

Snow Depth

Station Depth Elevation

Earthquake Activity

City Distance Mag. Time & Date
Minimum magnitude displayed is 2.5.

Coastal Water Temperatures

Place Temperature

Stations

Nearby Weather Stations

Station Location Temp. Windchill Dew Point Humidity Wind Precip. Elev Updated Type
                   
Freeze Watch
Statement as of 12:01 PM EDT on March 27, 2015

... Freeze watch remains in effect from late Saturday night
through Sunday morning...

* locations... all of north Georgia and a portion of central
Georgia from Franklin to Griffin to Warrenton.

* Temperatures... 28 to 32.

* Timing... late Saturday night into Sunday morning.

* Impacts... freezing temperatures could damage tender vegetation.

Precautionary/preparedness actions...

A freeze watch means conditions are favorable for a freeze event
in and close to the watch area. Those with agricultural interests
in the watch area should make preparations to protect sensitive
vegetation and Young trees.